Huvudsida
METAR-TAF:

METAR-TAF

Flygplatser :

Sultan Syarif Kasim II International Airport

Pakanbaru, Indonesien

latitud: 00-28N, longitud: 101-27E, höjd: 31 m

Aktuellt väderrapport

Denna rapport gjordes för 27 minuter sedan, klockan 14:30 UTC
Stilla vind
Temperatur 30°C
Fuktighet 70%
Tryck 1008 hPa
Sikt: 8000 m
Spridda moln på en höjd av 1700 ft

METAR: WIBB 201430Z 00000KT 8000 SCT017 30/24 Q1008

Tid: 21:57 (14:57 UTC)


TAF: saknas

Aktuella väderrapporter och prognoser från 4000 flygplatser (METAR- och TAF-rapporter).

De tillgängliga stationerna syns som gula och röda prickar på kartan.

För musen över prickarna för att se namnen på stationerna.

Klicka sedan för att få väderrapporter och prognoser.

För att ändra kartan: Klicka på de gröna knapparna med ett svart kors på för att zooma in; den gröna knappen med ett streck på för att zooma ut; eller på de gröna pilarna för angränsande kartor.


METAR-TAF: